sensor_id;sensor_type;location;lat;lon;timestamp;pressure;altitude;pressure_sealevel;temperature;humidity
34243;BME280;20504;43.214;27.920;2023-04-09T11:29:55;100648.59;;;18.22;100.00
34243;BME280;20504;43.214;27.920;2023-04-09T11:32:20;101369.34;;;18.71;100.00
34243;BME280;20504;43.214;27.920;2023-04-09T11:34:46;101815.31;;;18.37;100.00
34243;BME280;20504;43.214;27.920;2023-04-09T11:37:15;101970.41;;;19.05;100.00
34243;BME280;20504;43.214;27.920;2023-04-09T11:39:44;102035.91;;;19.04;100.00
34243;BME280;20504;43.214;27.920;2023-04-09T11:42:13;101873.25;;;19.44;100.00
34243;BME280;20504;43.214;27.920;2023-04-09T11:44:39;101632.81;;;19.77;100.00
34243;BME280;20504;43.214;27.920;2023-04-09T11:47:06;101369.34;;;19.93;100.00
34243;BME280;20504;43.214;27.920;2023-04-09T11:49:33;101056.38;;;20.28;100.00
34243;BME280;20504;43.214;27.920;2023-04-09T11:51:58;100670.69;;;21.18;100.00
34243;BME280;20504;43.214;27.920;2023-04-09T11:54:31;100136.78;;;21.95;100.00
34243;BME280;20504;43.214;27.920;2023-04-09T11:57:02;99734.25;;;21.90;100.00
34243;BME280;20504;43.214;27.920;2023-04-09T11:59:29;99316.97;;;21.96;100.00
34243;BME280;20504;43.214;27.920;2023-04-09T12:01:56;98655.44;;;23.10;100.00
34243;BME280;20504;43.214;27.920;2023-04-09T12:04:23;98152.31;;;23.99;100.00
34243;BME280;20504;43.214;27.920;2023-04-09T12:06:48;97466.19;;;24.33;100.00
34243;BME280;20504;43.214;27.920;2023-04-09T12:09:14;96640.00;;;24.06;100.00
34243;BME280;20504;43.214;27.920;2023-04-09T12:11:44;95956.03;;;24.22;100.00
34243;BME280;20504;43.214;27.920;2023-04-09T12:14:14;95507.16;;;24.96;100.00
34243;BME280;20504;43.214;27.920;2023-04-09T12:16:43;95421.06;;;24.75;100.00
34243;BME280;20504;43.214;27.920;2023-04-09T12:19:12;95469.34;;;25.22;100.00
34243;BME280;20504;43.214;27.920;2023-04-09T12:21:53;95746.53;;;25.14;100.00
34243;BME280;20504;43.214;27.920;2023-04-09T12:24:22;95944.69;;;24.52;100.00
34243;BME280;20504;43.214;27.920;2023-04-09T12:26:48;96056.59;;;23.24;100.00
34243;BME280;20504;43.214;27.920;2023-04-09T12:29:15;96754.28;;;23.82;100.00
34243;BME280;20504;43.214;27.920;2023-04-09T12:31:41;96957.09;;;24.74;100.00
34243;BME280;20504;43.214;27.920;2023-04-09T12:34:07;97158.53;;;25.59;100.00
34243;BME280;20504;43.214;27.920;2023-04-09T12:36:33;97194.16;;;25.12;100.00
34243;BME280;20504;43.214;27.920;2023-04-09T12:38:58;97105.44;;;23.96;100.00
34243;BME280;20504;43.214;27.920;2023-04-09T12:41:24;97032.66;;;24.04;100.00
34243;BME280;20504;43.214;27.920;2023-04-09T12:43:50;97019.94;;;23.90;100.00
34243;BME280;20504;43.214;27.920;2023-04-09T12:46:17;97024.53;;;23.89;100.00
34243;BME280;20504;43.214;27.920;2023-04-09T12:48:43;96996.59;;;23.58;100.00
34243;BME280;20504;43.214;27.920;2023-04-09T12:51:10;97155.63;;;24.34;100.00
34243;BME280;20504;43.214;27.920;2023-04-09T12:53:36;97117.88;;;23.86;100.00
34243;BME280;20504;43.214;27.920;2023-04-09T12:56:01;97207.06;;;24.34;100.00
34243;BME280;20504;43.214;27.920;2023-04-09T12:58:27;97294.09;;;24.68;100.00
34243;BME280;20504;43.214;27.920;2023-04-09T13:00:53;97247.03;;;24.16;100.00
34243;BME280;20504;43.214;27.920;2023-04-09T13:03:21;97386.25;;;24.83;100.00
34243;BME280;20504;43.214;27.920;2023-04-09T13:05:47;97574.78;;;25.74;100.00
34243;BME280;20504;43.214;27.920;2023-04-09T13:08:13;97650.78;;;25.79;100.00
34243;BME280;20504;43.214;27.920;2023-04-09T13:10:38;97518.69;;;25.12;100.00
34243;BME280;20504;43.214;27.920;2023-04-09T13:13:04;97470.34;;;24.98;100.00
34243;BME280;20504;43.214;27.920;2023-04-09T13:15:31;97412.75;;;24.66;100.00
34243;BME280;20504;43.214;27.920;2023-04-09T13:17:56;97455.16;;;24.97;100.00
34243;BME280;20504;43.214;27.920;2023-04-09T13:20:22;97182.28;;;23.90;100.00
34243;BME280;20504;43.214;27.920;2023-04-09T13:22:47;97214.56;;;24.16;100.00
34243;BME280;20504;43.214;27.920;2023-04-09T13:25:16;97283.56;;;24.14;100.00
34243;BME280;20504;43.214;27.920;2023-04-09T13:27:41;97171.34;;;23.64;100.00
34243;BME280;20504;43.214;27.920;2023-04-09T13:30:07;97218.78;;;23.82;100.00
34243;BME280;20504;43.214;27.920;2023-04-09T13:32:33;97035.25;;;22.91;100.00
34243;BME280;20504;43.214;27.920;2023-04-09T13:34:58;96899.59;;;22.84;100.00
34243;BME280;20504;43.214;27.920;2023-04-09T13:37:24;96941.88;;;22.58;100.00
34243;BME280;20504;43.214;27.920;2023-04-09T13:39:50;97157.13;;;23.00;100.00
34243;BME280;20504;43.214;27.920;2023-04-09T13:42:16;97572.97;;;24.42;100.00
34243;BME280;20504;43.214;27.920;2023-04-09T13:44:42;97684.34;;;24.24;100.00
34243;BME280;20504;43.214;27.920;2023-04-09T13:47:12;97490.44;;;23.59;100.00
34243;BME280;20504;43.214;27.920;2023-04-09T13:49:39;97640.56;;;24.32;100.00
34243;BME280;20504;43.214;27.920;2023-04-09T13:52:05;97626.75;;;24.07;100.00
34243;BME280;20504;43.214;27.920;2023-04-09T13:54:31;97669.38;;;24.43;100.00
34243;BME280;20504;43.214;27.920;2023-04-09T13:57:03;97579.63;;;24.03;100.00
34243;BME280;20504;43.214;27.920;2023-04-09T13:59:28;97563.59;;;24.28;100.00
34243;BME280;20504;43.214;27.920;2023-04-09T14:01:54;97574.13;;;24.25;100.00
34243;BME280;20504;43.214;27.920;2023-04-09T14:04:19;97576.06;;;24.56;100.00
34243;BME280;20504;43.214;27.920;2023-04-09T14:06:46;97700.00;;;25.08;100.00
34243;BME280;20504;43.214;27.920;2023-04-09T14:09:11;97725.91;;;25.26;100.00
34243;BME280;20504;43.214;27.920;2023-04-09T14:11:37;97621.69;;;24.74;100.00
34243;BME280;20504;43.214;27.920;2023-04-09T14:14:03;97562.66;;;24.76;100.00
34243;BME280;20504;43.214;27.920;2023-04-09T14:16:29;97387.66;;;23.91;100.00
34243;BME280;20504;43.214;27.920;2023-04-09T14:18:55;97232.59;;;23.43;100.00
34243;BME280;20504;43.214;27.920;2023-04-09T14:21:21;97340.00;;;23.90;100.00
34243;BME280;20504;43.214;27.920;2023-04-09T14:23:46;97422.69;;;24.13;100.00
34243;BME280;20504;43.214;27.920;2023-04-09T14:26:12;97517.00;;;24.58;100.00
34243;BME280;20504;43.214;27.920;2023-04-09T14:28:37;97459.31;;;24.21;100.00
34243;BME280;20504;43.214;27.920;2023-04-09T14:31:03;97255.63;;;23.14;100.00
34243;BME280;20504;43.214;27.920;2023-04-09T14:33:29;97082.53;;;22.56;100.00
34243;BME280;20504;43.214;27.920;2023-04-09T14:35:55;97007.31;;;22.33;100.00
34243;BME280;20504;43.214;27.920;2023-04-09T14:38:21;96821.97;;;21.27;100.00
34243;BME280;20504;43.214;27.920;2023-04-09T14:40:48;96937.19;;;21.74;100.00
34243;BME280;20504;43.214;27.920;2023-04-09T14:43:14;97100.59;;;22.24;100.00
34243;BME280;20504;43.214;27.920;2023-04-09T14:45:40;97351.25;;;22.86;100.00
34243;BME280;20504;43.214;27.920;2023-04-09T14:48:05;97467.69;;;22.84;100.00
34243;BME280;20504;43.214;27.920;2023-04-09T14:50:31;97473.66;;;23.08;100.00
34243;BME280;20504;43.214;27.920;2023-04-09T14:52:58;97396.78;;;22.77;100.00
34243;BME280;20504;43.214;27.920;2023-04-09T14:55:23;97614.47;;;23.72;100.00
34243;BME280;20504;43.214;27.920;2023-04-09T14:57:50;97566.41;;;23.36;100.00
34243;BME280;20504;43.214;27.920;2023-04-09T15:00:16;97074.22;;;21.77;100.00
34243;BME280;20504;43.214;27.920;2023-04-09T15:02:41;97208.06;;;22.54;100.00
34243;BME280;20504;43.214;27.920;2023-04-09T15:05:07;97216.00;;;22.39;100.00
34243;BME280;20504;43.214;27.920;2023-04-09T15:07:33;97017.44;;;21.62;100.00
34243;BME280;20504;43.214;27.920;2023-04-09T15:09:58;97010.09;;;21.84;100.00
34243;BME280;20504;43.214;27.920;2023-04-09T15:12:29;97111.91;;;22.21;100.00
34243;BME280;20504;43.214;27.920;2023-04-09T15:14:55;97087.47;;;22.05;100.00
34243;BME280;20504;43.214;27.920;2023-04-09T15:17:24;96723.19;;;20.47;100.00
34243;BME280;20504;43.214;27.920;2023-04-09T15:19:52;96587.84;;;20.24;100.00
34243;BME280;20504;43.214;27.920;2023-04-09T15:22:17;96575.97;;;20.15;100.00
34243;BME280;20504;43.214;27.920;2023-04-09T15:24:43;96623.69;;;19.54;100.00
34243;BME280;20504;43.214;27.920;2023-04-09T15:27:17;96920.84;;;19.10;100.00
34243;BME280;20504;43.214;27.920;2023-04-09T15:29:43;97457.53;;;17.65;100.00
34243;BME280;20504;43.214;27.920;2023-04-09T15:32:08;97871.28;;;17.31;100.00
34243;BME280;20504;43.214;27.920;2023-04-09T15:34:34;98254.88;;;17.26;100.00
34243;BME280;20504;43.214;27.920;2023-04-09T15:37:00;98429.59;;;17.07;100.00
34243;BME280;20504;43.214;27.920;2023-04-09T15:39:25;98621.88;;;16.97;100.00
34243;BME280;20504;43.214;27.920;2023-04-09T15:41:54;98660.94;;;16.54;100.00
34243;BME280;20504;43.214;27.920;2023-04-09T15:44:23;98557.28;;;16.71;100.00
34243;BME280;20504;43.214;27.920;2023-04-09T15:46:49;98514.59;;;16.54;100.00
34243;BME280;20504;43.214;27.920;2023-04-09T15:49:15;98473.69;;;16.24;100.00
34243;BME280;20504;43.214;27.920;2023-04-09T15:51:40;98460.03;;;16.04;100.00
34243;BME280;20504;43.214;27.920;2023-04-09T15:54:07;98290.09;;;15.66;100.00
34243;BME280;20504;43.214;27.920;2023-04-09T15:56:34;98110.25;;;15.65;100.00
34243;BME280;20504;43.214;27.920;2023-04-09T15:59:03;97958.78;;;15.44;100.00
34243;BME280;20504;43.214;27.920;2023-04-09T16:01:31;98176.88;;;15.23;100.00
34243;BME280;20504;43.214;27.920;2023-04-09T16:04:02;98286.34;;;15.23;100.00
34243;BME280;20504;43.214;27.920;2023-04-09T16:06:34;98633.31;;;15.16;100.00
34243;BME280;20504;43.214;27.920;2023-04-09T16:09:00;98847.75;;;15.08;100.00
34243;BME280;20504;43.214;27.920;2023-04-09T16:11:26;99075.69;;;15.07;100.00
34243;BME280;20504;43.214;27.920;2023-04-09T16:14:18;99208.47;;;14.97;100.00
34243;BME280;20504;43.214;27.920;2023-04-09T16:16:47;99476.19;;;14.90;100.00
34243;BME280;20504;43.214;27.920;2023-04-09T16:19:21;99652.25;;;14.81;100.00
34243;BME280;20504;43.214;27.920;2023-04-09T16:22:05;99862.84;;;14.46;100.00
34243;BME280;20504;43.214;27.920;2023-04-09T16:24:31;100041.84;;;14.73;100.00
34243;BME280;20504;43.214;27.920;2023-04-09T16:26:57;100265.78;;;14.35;100.00
34243;BME280;20504;43.214;27.920;2023-04-09T16:29:29;100708.56;;;14.47;100.00
34243;BME280;20504;43.214;27.920;2023-04-09T16:32:00;100965.22;;;14.29;100.00
34243;BME280;20504;43.214;27.920;2023-04-09T16:34:32;101286.44;;;14.53;100.00
34243;BME280;20504;43.214;27.920;2023-04-09T16:37:07;101634.50;;;14.36;100.00
34243;BME280;20504;43.214;27.920;2023-04-09T16:39:33;101946.59;;;13.60;100.00
34243;BME280;20504;43.214;27.920;2023-04-09T16:42:36;103123.78;;;13.72;100.00
34243;BME280;20504;43.214;27.920;2023-04-09T16:45:12;103425.47;;;13.91;100.00
34243;BME280;20504;43.214;27.920;2023-04-09T16:47:39;103624.66;;;13.92;100.00
34243;BME280;20504;43.214;27.920;2023-04-09T16:50:26;103596.19;;;13.63;100.00
34243;BME280;20504;43.214;27.920;2023-04-09T16:53:01;103518.25;;;13.83;100.00
34243;BME280;20504;43.214;27.920;2023-04-09T16:55:51;103251.81;;;13.72;100.00
34243;BME280;20504;43.214;27.920;2023-04-09T16:58:34;103038.81;;;13.38;100.00
34243;BME280;20504;43.214;27.920;2023-04-09T17:03:39;103428.13;;;13.35;100.00
34243;BME280;20504;43.214;27.920;2023-04-09T17:06:35;103689.78;;;13.86;100.00
34243;BME280;20504;43.214;27.920;2023-04-09T17:09:02;103788.63;;;13.48;100.00
34243;BME280;20504;43.214;27.920;2023-04-09T17:12:02;103870.78;;;13.69;100.00
34243;BME280;20504;43.214;27.920;2023-04-09T17:14:48;103883.88;;;13.43;100.00
34243;BME280;20504;43.214;27.920;2023-04-09T17:17:15;103975.56;;;13.74;100.00
34243;BME280;20504;43.214;27.920;2023-04-09T17:19:44;103943.81;;;13.63;100.00
34243;BME280;20504;43.214;27.920;2023-04-09T17:22:20;103962.00;;;13.85;100.00
34243;BME280;20504;43.214;27.920;2023-04-09T17:24:46;103920.50;;;13.72;100.00
34243;BME280;20504;43.214;27.920;2023-04-09T17:27:12;103861.13;;;13.63;100.00
34243;BME280;20504;43.214;27.920;2023-04-09T17:29:39;103835.22;;;13.69;100.00
34243;BME280;20504;43.214;27.920;2023-04-09T17:32:16;103819.94;;;14.08;100.00
34243;BME280;20504;43.214;27.920;2023-04-09T17:34:46;103708.16;;;13.97;100.00
34243;BME280;20504;43.214;27.920;2023-04-09T17:37:11;103660.72;;;14.07;100.00
34243;BME280;20504;43.214;27.920;2023-04-09T17:39:48;103555.94;;;13.71;100.00
34243;BME280;20504;43.214;27.920;2023-04-09T17:42:37;103480.84;;;13.55;100.00
34243;BME280;20504;43.214;27.920;2023-04-09T17:45:04;103471.84;;;13.87;100.00
34243;BME280;20504;43.214;27.920;2023-04-09T17:47:46;103375.84;;;13.59;100.00
34243;BME280;20504;43.214;27.920;2023-04-09T17:50:20;103395.13;;;13.95;100.00
34243;BME280;20504;43.214;27.920;2023-04-09T17:52:46;103335.06;;;13.82;100.00
34243;BME280;20504;43.214;27.920;2023-04-09T17:55:36;103323.88;;;13.97;100.00
34243;BME280;20504;43.214;27.920;2023-04-09T17:58:04;103301.56;;;14.00;100.00
34243;BME280;20504;43.214;27.920;2023-04-09T18:00:35;103241.66;;;13.83;100.00
34243;BME280;20504;43.214;27.920;2023-04-09T18:03:07;103242.16;;;13.94;100.00
34243;BME280;20504;43.214;27.920;2023-04-09T18:05:33;103186.00;;;13.73;100.00
34243;BME280;20504;43.214;27.920;2023-04-09T18:13:43;103116.66;;;13.23;100.00
34243;BME280;20504;43.214;27.920;2023-04-09T18:16:14;103241.03;;;13.75;100.00
34243;BME280;20504;43.214;27.920;2023-04-09T18:18:42;103238.44;;;13.47;100.00
34243;BME280;20504;43.214;27.920;2023-04-09T18:21:40;103268.47;;;13.52;100.00
34243;BME280;20504;43.214;27.920;2023-04-09T18:24:17;103327.41;;;13.71;100.00
34243;BME280;20504;43.214;27.920;2023-04-09T18:26:43;103308.06;;;13.38;100.00
34243;BME280;20504;43.214;27.920;2023-04-09T18:29:43;103376.19;;;13.75;100.00
34243;BME280;20504;43.214;27.920;2023-04-09T18:32:28;103362.56;;;13.57;100.00
34243;BME280;20504;43.214;27.920;2023-04-09T18:34:53;103429.09;;;13.62;100.00
34243;BME280;20504;43.214;27.920;2023-04-09T18:37:20;103439.28;;;13.48;100.00
34243;BME280;20504;43.214;27.920;2023-04-09T18:39:45;103463.91;;;13.56;100.00
34243;BME280;20504;43.214;27.920;2023-04-09T18:42:11;103476.53;;;13.51;100.00
34243;BME280;20504;43.214;27.920;2023-04-09T18:44:37;103506.63;;;13.54;100.00
34243;BME280;20504;43.214;27.920;2023-04-09T18:47:06;103442.16;;;13.11;100.00
34243;BME280;20504;43.214;27.920;2023-04-09T18:49:34;103511.44;;;13.43;100.00
34243;BME280;20504;43.214;27.920;2023-04-09T18:52:00;103508.88;;;13.40;100.00
34243;BME280;20504;43.214;27.920;2023-04-09T18:54:26;103451.34;;;12.99;100.00
34243;BME280;20504;43.214;27.920;2023-04-09T18:56:52;103518.72;;;13.37;100.00
34243;BME280;20504;43.214;27.920;2023-04-09T18:59:17;103536.34;;;13.42;100.00
34243;BME280;20504;43.214;27.920;2023-04-09T19:01:43;103530.53;;;13.28;100.00
34243;BME280;20504;43.214;27.920;2023-04-09T19:04:09;103488.84;;;13.25;100.00
34243;BME280;20504;43.214;27.920;2023-04-09T19:06:35;103526.41;;;13.47;100.00
34243;BME280;20504;43.214;27.920;2023-04-09T19:09:00;103509.59;;;13.45;100.00
34243;BME280;20504;43.214;27.920;2023-04-09T19:11:26;103490.16;;;13.42;100.00
34243;BME280;20504;43.214;27.920;2023-04-09T19:13:52;103486.63;;;13.41;100.00
34243;BME280;20504;43.214;27.920;2023-04-09T19:16:18;103471.66;;;13.36;100.00
34243;BME280;20504;43.214;27.920;2023-04-09T19:18:44;103448.03;;;13.23;100.00
34243;BME280;20504;43.214;27.920;2023-04-09T19:21:10;103407.59;;;13.08;100.00
34243;BME280;20504;43.214;27.920;2023-04-09T19:23:35;103388.94;;;13.08;100.00
34243;BME280;20504;43.214;27.920;2023-04-09T19:26:02;103396.53;;;13.23;100.00
34243;BME280;20504;43.214;27.920;2023-04-09T19:28:28;103369.94;;;13.20;100.00
34243;BME280;20504;43.214;27.920;2023-04-09T19:30:53;103338.94;;;13.16;100.00
34243;BME280;20504;43.214;27.920;2023-04-09T19:33:24;103328.72;;;13.31;100.00
34243;BME280;20504;43.214;27.920;2023-04-09T19:35:52;103300.47;;;13.26;100.00
34243;BME280;20504;43.214;27.920;2023-04-09T19:38:18;103291.66;;;13.24;100.00
34243;BME280;20504;43.214;27.920;2023-04-09T19:40:45;103237.34;;;12.98;100.00
34243;BME280;20504;43.214;27.920;2023-04-09T19:43:44;103244.59;;;13.23;100.00
34243;BME280;20504;43.214;27.920;2023-04-09T19:46:09;103199.59;;;13.12;100.00
34243;BME280;20504;43.214;27.920;2023-04-09T19:48:36;103207.34;;;13.20;100.00
34243;BME280;20504;43.214;27.920;2023-04-09T19:51:01;103186.97;;;13.19;100.00
34243;BME280;20504;43.214;27.920;2023-04-09T19:53:27;103168.50;;;13.13;100.00
34243;BME280;20504;43.214;27.920;2023-04-09T19:55:53;103062.84;;;12.59;100.00
34243;BME280;20504;43.214;27.920;2023-04-09T19:58:18;103146.19;;;13.15;100.00
34243;BME280;20504;43.214;27.920;2023-04-09T20:00:44;103123.31;;;13.10;100.00
34243;BME280;20504;43.214;27.920;2023-04-09T20:03:09;103117.00;;;13.12;100.00
34243;BME280;20504;43.214;27.920;2023-04-09T20:05:35;103096.25;;;12.95;100.00
34243;BME280;20504;43.214;27.920;2023-04-09T20:08:01;103075.97;;;12.91;100.00
34243;BME280;20504;43.214;27.920;2023-04-09T20:10:28;103074.63;;;13.04;100.00
34243;BME280;20504;43.214;27.920;2023-04-09T20:12:54;103066.59;;;13.06;100.00
34243;BME280;20504;43.214;27.920;2023-04-09T20:15:20;103062.88;;;13.10;100.00
34243;BME280;20504;43.214;27.920;2023-04-09T20:17:49;103037.34;;;13.04;100.00
34243;BME280;20504;43.214;27.920;2023-04-09T20:20:15;103033.88;;;13.01;100.00
34243;BME280;20504;43.214;27.920;2023-04-09T20:22:45;103024.16;;;13.00;100.00
34243;BME280;20504;43.214;27.920;2023-04-09T20:25:17;103028.81;;;12.93;100.00
34243;BME280;20504;43.214;27.920;2023-04-09T20:27:55;103026.59;;;12.81;100.00
34243;BME280;20504;43.214;27.920;2023-04-09T20:30:20;102974.75;;;12.66;100.00
34243;BME280;20504;43.214;27.920;2023-04-09T20:32:46;102994.53;;;12.58;100.00
34243;BME280;20504;43.214;27.920;2023-04-09T20:35:13;103027.44;;;12.83;100.00
34243;BME280;20504;43.214;27.920;2023-04-09T20:37:38;103018.22;;;12.92;100.00
34243;BME280;20504;43.214;27.920;2023-04-09T20:40:04;103005.31;;;12.80;100.00
34243;BME280;20504;43.214;27.920;2023-04-09T20:42:30;102983.44;;;12.71;100.00
34243;BME280;20504;43.214;27.920;2023-04-09T20:44:56;103006.38;;;12.76;100.00
34243;BME280;20504;43.214;27.920;2023-04-09T20:47:22;102992.59;;;12.63;100.00
34243;BME280;20504;43.214;27.920;2023-04-09T20:49:48;102951.97;;;12.31;100.00
34243;BME280;20504;43.214;27.920;2023-04-09T20:52:15;103002.47;;;12.59;100.00
34243;BME280;20504;43.214;27.920;2023-04-09T20:54:40;103000.91;;;12.54;100.00
34243;BME280;20504;43.214;27.920;2023-04-09T20:57:07;102998.03;;;12.60;100.00
34243;BME280;20504;43.214;27.920;2023-04-09T20:59:34;103005.47;;;12.50;100.00
34243;BME280;20504;43.214;27.920;2023-04-09T21:01:59;102987.69;;;12.51;100.00
34243;BME280;20504;43.214;27.920;2023-04-09T21:04:25;103003.91;;;12.69;100.00
34243;BME280;20504;43.214;27.920;2023-04-09T21:06:51;102968.63;;;12.63;100.00
34243;BME280;20504;43.214;27.920;2023-04-09T21:09:17;102954.06;;;12.48;100.00
34243;BME280;20504;43.214;27.920;2023-04-09T21:11:42;102976.84;;;12.57;100.00
34243;BME280;20504;43.214;27.920;2023-04-09T21:14:08;102964.44;;;12.56;100.00
34243;BME280;20504;43.214;27.920;2023-04-09T21:16:35;102952.28;;;12.49;100.00
34243;BME280;20504;43.214;27.920;2023-04-09T21:19:01;102951.84;;;12.61;100.00
34243;BME280;20504;43.214;27.920;2023-04-09T21:21:35;102945.88;;;12.54;100.00
34243;BME280;20504;43.214;27.920;2023-04-09T21:24:01;102938.97;;;12.49;100.00
34243;BME280;20504;43.214;27.920;2023-04-09T21:26:29;102931.56;;;12.57;100.00
34243;BME280;20504;43.214;27.920;2023-04-09T21:28:55;102896.31;;;12.50;100.00
34243;BME280;20504;43.214;27.920;2023-04-09T21:31:23;102880.28;;;12.52;100.00
34243;BME280;20504;43.214;27.920;2023-04-09T21:33:50;102890.53;;;12.62;100.00
34243;BME280;20504;43.214;27.920;2023-04-09T21:36:16;102859.69;;;12.57;100.00
34243;BME280;20504;43.214;27.920;2023-04-09T21:38:42;102810.59;;;12.40;100.00
34243;BME280;20504;43.214;27.920;2023-04-09T21:41:07;102842.53;;;12.65;100.00
34243;BME280;20504;43.214;27.920;2023-04-09T21:43:33;102806.59;;;12.29;100.00
34243;BME280;20504;43.214;27.920;2023-04-09T21:45:59;102825.91;;;12.59;100.00
34243;BME280;20504;43.214;27.920;2023-04-09T21:48:25;102810.91;;;12.56;100.00
34243;BME280;20504;43.214;27.920;2023-04-09T21:50:51;102808.31;;;12.55;100.00
34243;BME280;20504;43.214;27.920;2023-04-09T21:53:16;102811.66;;;12.60;100.00
34243;BME280;20504;43.214;27.920;2023-04-09T21:55:43;102777.53;;;12.48;100.00
34243;BME280;20504;43.214;27.920;2023-04-09T21:58:30;102779.25;;;12.49;100.00
34243;BME280;20504;43.214;27.920;2023-04-09T22:00:56;102760.84;;;12.42;100.00
34243;BME280;20504;43.214;27.920;2023-04-09T22:03:22;102794.69;;;12.39;100.00
34243;BME280;20504;43.214;27.920;2023-04-09T22:05:48;102822.03;;;12.42;100.00
34243;BME280;20504;43.214;27.920;2023-04-09T22:08:14;102837.19;;;12.40;100.00
34243;BME280;20504;43.214;27.920;2023-04-09T22:10:39;102863.94;;;12.37;100.00
34243;BME280;20504;43.214;27.920;2023-04-09T22:13:05;102872.72;;;12.39;100.00
34243;BME280;20504;43.214;27.920;2023-04-09T22:15:30;102843.69;;;12.33;100.00
34243;BME280;20504;43.214;27.920;2023-04-09T22:18:00;102854.91;;;12.41;100.00
34243;BME280;20504;43.214;27.920;2023-04-09T22:20:36;102869.63;;;12.27;100.00
34243;BME280;20504;43.214;27.920;2023-04-09T22:23:02;102888.22;;;12.28;100.00
34243;BME280;20504;43.214;27.920;2023-04-09T22:25:27;102861.72;;;11.99;100.00
34243;BME280;20504;43.214;27.920;2023-04-09T22:28:24;102915.81;;;12.24;100.00
34243;BME280;20504;43.214;27.920;2023-04-09T22:30:51;102926.91;;;12.12;100.00
34243;BME280;20504;43.214;27.920;2023-04-09T22:33:17;102912.97;;;12.04;100.00
34243;BME280;20504;43.214;27.920;2023-04-09T22:35:43;102936.72;;;12.10;100.00
34243;BME280;20504;43.214;27.920;2023-04-09T22:38:12;102968.38;;;12.18;100.00
34243;BME280;20504;43.214;27.920;2023-04-09T22:40:38;102985.69;;;12.03;100.00
34243;BME280;20504;43.214;27.920;2023-04-09T22:43:04;102986.19;;;11.88;100.00
34243;BME280;20504;43.214;27.920;2023-04-09T22:45:30;103012.59;;;11.94;100.00
34243;BME280;20504;43.214;27.920;2023-04-09T22:47:56;103050.41;;;12.03;100.00
34243;BME280;20504;43.214;27.920;2023-04-09T22:50:21;103053.47;;;11.90;100.00
34243;BME280;20504;43.214;27.920;2023-04-09T22:52:50;103053.13;;;12.02;100.00
34243;BME280;20504;43.214;27.920;2023-04-09T22:55:20;103048.66;;;12.02;100.00
34243;BME280;20504;43.214;27.920;2023-04-09T22:57:49;103023.13;;;11.97;100.00
34243;BME280;20504;43.214;27.920;2023-04-09T23:00:16;103043.25;;;12.05;100.00
34243;BME280;20504;43.214;27.920;2023-04-09T23:02:42;103013.88;;;11.80;100.00
34243;BME280;20504;43.214;27.920;2023-04-09T23:05:12;103037.47;;;11.93;100.00
34243;BME280;20504;43.214;27.920;2023-04-09T23:07:37;103031.56;;;11.81;100.00
34243;BME280;20504;43.214;27.920;2023-04-09T23:10:06;103049.47;;;11.75;100.00
34243;BME280;20504;43.214;27.920;2023-04-09T23:12:33;103052.00;;;11.48;100.00
34243;BME280;20504;43.214;27.920;2023-04-09T23:15:05;103061.91;;;11.43;100.00
34243;BME280;20504;43.214;27.920;2023-04-09T23:17:30;103040.88;;;11.36;100.00
34243;BME280;20504;43.214;27.920;2023-04-09T23:19:56;103058.78;;;11.28;100.00
34243;BME280;20504;43.214;27.920;2023-04-09T23:22:21;103077.28;;;11.31;100.00
34243;BME280;20504;43.214;27.920;2023-04-09T23:24:49;103094.00;;;11.36;100.00
34243;BME280;20504;43.214;27.920;2023-04-09T23:27:14;103071.47;;;11.18;100.00
34243;BME280;20504;43.214;27.920;2023-04-09T23:29:40;103102.44;;;11.19;100.00
34243;BME280;20504;43.214;27.920;2023-04-09T23:32:08;103090.25;;;11.10;100.00
34243;BME280;20504;43.214;27.920;2023-04-09T23:34:40;103125.22;;;11.28;100.00
34243;BME280;20504;43.214;27.920;2023-04-09T23:37:05;103137.66;;;11.26;100.00
34243;BME280;20504;43.214;27.920;2023-04-09T23:39:31;103133.19;;;11.28;100.00
34243;BME280;20504;43.214;27.920;2023-04-09T23:41:57;103060.63;;;10.91;100.00
34243;BME280;20504;43.214;27.920;2023-04-09T23:44:25;103140.19;;;11.30;100.00
34243;BME280;20504;43.214;27.920;2023-04-09T23:46:59;103104.47;;;11.08;100.00
34243;BME280;20504;43.214;27.920;2023-04-09T23:49:28;103106.53;;;11.31;100.00
34243;BME280;20504;43.214;27.920;2023-04-09T23:51:54;103098.63;;;11.28;100.00
34243;BME280;20504;43.214;27.920;2023-04-09T23:54:19;103073.75;;;11.30;100.00
34243;BME280;20504;43.214;27.920;2023-04-09T23:56:45;103075.44;;;11.34;100.00
34243;BME280;20504;43.214;27.920;2023-04-09T23:59:11;103064.66;;;11.40;100.00
